sensor_id;sensor_type;location;lat;lon;timestamp;temperature;humidity
36374;DHT22;22399;51.346;12.372;2023-04-24T00:01:42;13.60;92.20
36374;DHT22;22399;51.346;12.372;2023-04-24T00:04:10;13.50;92.40
36374;DHT22;22399;51.346;12.372;2023-04-24T00:06:41;13.50;92.70
36374;DHT22;22399;51.346;12.372;2023-04-24T00:09:09;13.50;93.00
36374;DHT22;22399;51.346;12.372;2023-04-24T00:11:37;13.40;93.30
36374;DHT22;22399;51.346;12.372;2023-04-24T00:14:06;13.40;93.70
36374;DHT22;22399;51.346;12.372;2023-04-24T00:16:35;13.40;94.00
36374;DHT22;22399;51.346;12.372;2023-04-24T00:19:04;13.30;94.30
36374;DHT22;22399;51.346;12.372;2023-04-24T00:21:32;13.30;94.70
36374;DHT22;22399;51.346;12.372;2023-04-24T00:24:00;13.40;95.00
36374;DHT22;22399;51.346;12.372;2023-04-24T00:26:29;13.30;95.10
36374;DHT22;22399;51.346;12.372;2023-04-24T00:28:57;13.30;95.30
36374;DHT22;22399;51.346;12.372;2023-04-24T00:31:26;13.20;95.70
36374;DHT22;22399;51.346;12.372;2023-04-24T00:33:56;13.20;96.10
36374;DHT22;22399;51.346;12.372;2023-04-24T00:36:24;13.20;96.60
36374;DHT22;22399;51.346;12.372;2023-04-24T00:38:53;13.10;96.80
36374;DHT22;22399;51.346;12.372;2023-04-24T00:41:22;13.10;97.20
36374;DHT22;22399;51.346;12.372;2023-04-24T00:43:51;13.00;97.50
36374;DHT22;22399;51.346;12.372;2023-04-24T00:46:20;13.00;97.90
36374;DHT22;22399;51.346;12.372;2023-04-24T00:48:48;13.00;98.30
36374;DHT22;22399;51.346;12.372;2023-04-24T00:51:18;12.90;99.00
36374;DHT22;22399;51.346;12.372;2023-04-24T00:53:47;13.00;99.90
36374;DHT22;22399;51.346;12.372;2023-04-24T00:56:15;12.90;99.70
36374;DHT22;22399;51.346;12.372;2023-04-24T00:58:44;12.80;99.90
36374;DHT22;22399;51.346;12.372;2023-04-24T01:01:12;12.80;99.90
36374;DHT22;22399;51.346;12.372;2023-04-24T01:03:41;12.80;99.90
36374;DHT22;22399;51.346;12.372;2023-04-24T01:06:10;12.70;99.90
36374;DHT22;22399;51.346;12.372;2023-04-24T01:08:40;12.70;99.90
36374;DHT22;22399;51.346;12.372;2023-04-24T01:11:09;12.70;99.90
36374;DHT22;22399;51.346;12.372;2023-04-24T01:13:37;12.60;99.90
36374;DHT22;22399;51.346;12.372;2023-04-24T01:16:06;12.60;99.90
36374;DHT22;22399;51.346;12.372;2023-04-24T01:18:34;12.70;99.90
36374;DHT22;22399;51.346;12.372;2023-04-24T01:21:04;12.70;99.90
36374;DHT22;22399;51.346;12.372;2023-04-24T01:23:34;12.60;99.90
36374;DHT22;22399;51.346;12.372;2023-04-24T01:26:02;12.60;99.90
36374;DHT22;22399;51.346;12.372;2023-04-24T01:28:30;12.60;99.90
36374;DHT22;22399;51.346;12.372;2023-04-24T01:30:59;12.60;99.90
36374;DHT22;22399;51.346;12.372;2023-04-24T01:33:27;12.60;99.90
36374;DHT22;22399;51.346;12.372;2023-04-24T01:35:55;12.50;99.90
36374;DHT22;22399;51.346;12.372;2023-04-24T01:38:24;12.50;99.90
36374;DHT22;22399;51.346;12.372;2023-04-24T01:40:54;12.50;99.90
36374;DHT22;22399;51.346;12.372;2023-04-24T01:43:24;12.50;99.90
36374;DHT22;22399;51.346;12.372;2023-04-24T01:45:52;12.40;99.90
36374;DHT22;22399;51.346;12.372;2023-04-24T01:48:20;12.30;99.90
36374;DHT22;22399;51.346;12.372;2023-04-24T01:50:48;12.40;99.90
36374;DHT22;22399;51.346;12.372;2023-04-24T01:53:16;12.30;99.90
36374;DHT22;22399;51.346;12.372;2023-04-24T01:55:44;12.30;99.90
36374;DHT22;22399;51.346;12.372;2023-04-24T01:58:14;12.30;99.90
36374;DHT22;22399;51.346;12.372;2023-04-24T02:00:42;12.20;99.90
36374;DHT22;22399;51.346;12.372;2023-04-24T02:03:10;12.20;99.90
36374;DHT22;22399;51.346;12.372;2023-04-24T02:05:38;12.20;99.90
36374;DHT22;22399;51.346;12.372;2023-04-24T02:08:07;12.10;99.90
36374;DHT22;22399;51.346;12.372;2023-04-24T02:10:37;12.10;99.90
36374;DHT22;22399;51.346;12.372;2023-04-24T02:13:05;12.10;99.90
36374;DHT22;22399;51.346;12.372;2023-04-24T02:15:35;12.00;99.90
36374;DHT22;22399;51.346;12.372;2023-04-24T02:18:03;12.10;99.90
36374;DHT22;22399;51.346;12.372;2023-04-24T02:20:33;12.00;99.90
36374;DHT22;22399;51.346;12.372;2023-04-24T02:23:02;12.10;99.90
36374;DHT22;22399;51.346;12.372;2023-04-24T02:25:30;12.10;99.90
36374;DHT22;22399;51.346;12.372;2023-04-24T02:27:59;12.00;99.90
36374;DHT22;22399;51.346;12.372;2023-04-24T02:30:27;12.00;99.90
36374;DHT22;22399;51.346;12.372;2023-04-24T02:32:57;12.00;99.90
36374;DHT22;22399;51.346;12.372;2023-04-24T02:35:25;12.00;99.90
36374;DHT22;22399;51.346;12.372;2023-04-24T02:37:53;11.90;99.90
36374;DHT22;22399;51.346;12.372;2023-04-24T02:40:22;11.90;99.90
36374;DHT22;22399;51.346;12.372;2023-04-24T02:42:50;11.90;99.90
36374;DHT22;22399;51.346;12.372;2023-04-24T02:45:18;11.90;99.90
36374;DHT22;22399;51.346;12.372;2023-04-24T02:47:47;11.90;99.90
36374;DHT22;22399;51.346;12.372;2023-04-24T02:50:16;11.80;99.90
36374;DHT22;22399;51.346;12.372;2023-04-24T02:52:45;11.80;99.90
36374;DHT22;22399;51.346;12.372;2023-04-24T02:55:13;11.80;99.90
36374;DHT22;22399;51.346;12.372;2023-04-24T02:57:41;11.80;99.90
36374;DHT22;22399;51.346;12.372;2023-04-24T03:00:10;11.70;99.90
36374;DHT22;22399;51.346;12.372;2023-04-24T03:02:39;11.70;99.90
36374;DHT22;22399;51.346;12.372;2023-04-24T03:05:07;11.70;99.90
36374;DHT22;22399;51.346;12.372;2023-04-24T03:07:40;11.70;99.90
36374;DHT22;22399;51.346;12.372;2023-04-24T03:10:09;11.70;99.90
36374;DHT22;22399;51.346;12.372;2023-04-24T03:12:37;11.70;99.90
36374;DHT22;22399;51.346;12.372;2023-04-24T03:15:05;11.70;99.90
36374;DHT22;22399;51.346;12.372;2023-04-24T03:17:36;11.70;99.90
36374;DHT22;22399;51.346;12.372;2023-04-24T03:20:06;11.70;99.90
36374;DHT22;22399;51.346;12.372;2023-04-24T03:22:35;11.70;99.90
36374;DHT22;22399;51.346;12.372;2023-04-24T03:25:08;11.70;99.90
36374;DHT22;22399;51.346;12.372;2023-04-24T03:27:37;11.70;99.90
36374;DHT22;22399;51.346;12.372;2023-04-24T03:30:25;11.60;99.90
36374;DHT22;22399;51.346;12.372;2023-04-24T03:32:57;11.60;99.90
36374;DHT22;22399;51.346;12.372;2023-04-24T03:35:29;11.60;99.90
36374;DHT22;22399;51.346;12.372;2023-04-24T03:38:01;11.60;99.90
36374;DHT22;22399;51.346;12.372;2023-04-24T03:40:41;11.60;99.90
36374;DHT22;22399;51.346;12.372;2023-04-24T03:43:33;11.60;99.90
36374;DHT22;22399;51.346;12.372;2023-04-24T03:46:02;11.50;99.90
36374;DHT22;22399;51.346;12.372;2023-04-24T03:48:33;11.50;99.90
36374;DHT22;22399;51.346;12.372;2023-04-24T03:51:01;11.60;99.90
36374;DHT22;22399;51.346;12.372;2023-04-24T03:53:31;11.50;99.90
36374;DHT22;22399;51.346;12.372;2023-04-24T03:56:01;11.50;99.90
36374;DHT22;22399;51.346;12.372;2023-04-24T03:58:31;11.50;99.90
36374;DHT22;22399;51.346;12.372;2023-04-24T04:00:59;11.50;99.90
36374;DHT22;22399;51.346;12.372;2023-04-24T04:03:48;11.50;99.90
36374;DHT22;22399;51.346;12.372;2023-04-24T04:06:20;11.50;99.90
36374;DHT22;22399;51.346;12.372;2023-04-24T04:08:51;11.40;99.90
36374;DHT22;22399;51.346;12.372;2023-04-24T04:11:20;11.40;99.90
36374;DHT22;22399;51.346;12.372;2023-04-24T04:13:49;11.40;99.90
36374;DHT22;22399;51.346;12.372;2023-04-24T04:16:20;11.40;99.90
36374;DHT22;22399;51.346;12.372;2023-04-24T04:18:53;11.40;99.90
36374;DHT22;22399;51.346;12.372;2023-04-24T04:21:21;11.40;99.90
36374;DHT22;22399;51.346;12.372;2023-04-24T04:23:56;11.40;99.90
36374;DHT22;22399;51.346;12.372;2023-04-24T04:26:34;11.50;99.90
36374;DHT22;22399;51.346;12.372;2023-04-24T04:29:04;11.50;99.90
36374;DHT22;22399;51.346;12.372;2023-04-24T04:31:38;11.60;99.90
36374;DHT22;22399;51.346;12.372;2023-04-24T04:34:10;11.70;99.90
36374;DHT22;22399;51.346;12.372;2023-04-24T04:36:40;11.70;99.90
36374;DHT22;22399;51.346;12.372;2023-04-24T04:39:28;11.70;99.90
36374;DHT22;22399;51.346;12.372;2023-04-24T04:42:05;11.80;99.90
36374;DHT22;22399;51.346;12.372;2023-04-24T04:44:39;11.80;99.90
36374;DHT22;22399;51.346;12.372;2023-04-24T04:47:11;11.80;99.90
36374;DHT22;22399;51.346;12.372;2023-04-24T04:49:39;11.80;99.90
36374;DHT22;22399;51.346;12.372;2023-04-24T04:52:15;11.80;99.90
36374;DHT22;22399;51.346;12.372;2023-04-24T04:54:47;11.90;99.90
36374;DHT22;22399;51.346;12.372;2023-04-24T04:57:17;11.80;99.90
36374;DHT22;22399;51.346;12.372;2023-04-24T04:59:45;11.80;99.90
36374;DHT22;22399;51.346;12.372;2023-04-24T05:02:22;11.90;99.90
36374;DHT22;22399;51.346;12.372;2023-04-24T05:04:51;11.90;99.90
36374;DHT22;22399;51.346;12.372;2023-04-24T05:07:20;12.00;99.90
36374;DHT22;22399;51.346;12.372;2023-04-24T05:09:50;12.00;99.90
36374;DHT22;22399;51.346;12.372;2023-04-24T05:12:20;12.00;99.90
36374;DHT22;22399;51.346;12.372;2023-04-24T05:14:51;12.00;99.90
36374;DHT22;22399;51.346;12.372;2023-04-24T05:17:20;12.10;99.90
36374;DHT22;22399;51.346;12.372;2023-04-24T05:19:50;12.20;99.90
36374;DHT22;22399;51.346;12.372;2023-04-24T05:22:18;12.30;99.90
36374;DHT22;22399;51.346;12.372;2023-04-24T05:24:50;12.40;99.90
36374;DHT22;22399;51.346;12.372;2023-04-24T05:27:32;12.50;99.90
36374;DHT22;22399;51.346;12.372;2023-04-24T05:30:03;12.70;99.90
36374;DHT22;22399;51.346;12.372;2023-04-24T05:32:32;12.70;99.90
36374;DHT22;22399;51.346;12.372;2023-04-24T05:35:01;12.80;99.90
36374;DHT22;22399;51.346;12.372;2023-04-24T05:37:29;12.80;99.90
36374;DHT22;22399;51.346;12.372;2023-04-24T05:39:57;13.00;99.90
36374;DHT22;22399;51.346;12.372;2023-04-24T05:42:25;13.10;99.90
36374;DHT22;22399;51.346;12.372;2023-04-24T05:44:57;13.20;99.80
36374;DHT22;22399;51.346;12.372;2023-04-24T05:47:26;13.20;99.10
36374;DHT22;22399;51.346;12.372;2023-04-24T05:49:54;13.10;98.60
36374;DHT22;22399;51.346;12.372;2023-04-24T05:52:23;13.10;98.30
36374;DHT22;22399;51.346;12.372;2023-04-24T05:54:51;13.20;98.40
36374;DHT22;22399;51.346;12.372;2023-04-24T05:57:23;13.40;98.40
36374;DHT22;22399;51.346;12.372;2023-04-24T05:59:55;13.40;97.90
36374;DHT22;22399;51.346;12.372;2023-04-24T06:02:26;13.60;97.70
36374;DHT22;22399;51.346;12.372;2023-04-24T06:04:59;13.80;97.00
36374;DHT22;22399;51.346;12.372;2023-04-24T06:07:29;14.00;96.60
36374;DHT22;22399;51.346;12.372;2023-04-24T06:10:00;14.10;95.80
36374;DHT22;22399;51.346;12.372;2023-04-24T06:12:34;14.10;95.50
36374;DHT22;22399;51.346;12.372;2023-04-24T06:15:07;14.30;95.10
36374;DHT22;22399;51.346;12.372;2023-04-24T06:17:56;14.40;94.70
36374;DHT22;22399;51.346;12.372;2023-04-24T06:20:25;14.50;94.50
36374;DHT22;22399;51.346;12.372;2023-04-24T06:22:53;14.60;93.10
36374;DHT22;22399;51.346;12.372;2023-04-24T06:27:51;14.10;93.10
36374;DHT22;22399;51.346;12.372;2023-04-24T06:30:20;14.00;93.50
36374;DHT22;22399;51.346;12.372;2023-04-24T06:32:48;13.90;93.50
36374;DHT22;22399;51.346;12.372;2023-04-24T06:35:18;13.90;93.60
36374;DHT22;22399;51.346;12.372;2023-04-24T06:37:46;13.80;93.50
36374;DHT22;22399;51.346;12.372;2023-04-24T06:40:15;13.60;93.40
36374;DHT22;22399;51.346;12.372;2023-04-24T06:42:45;13.60;93.60
36374;DHT22;22399;51.346;12.372;2023-04-24T06:45:13;13.50;93.60
36374;DHT22;22399;51.346;12.372;2023-04-24T06:47:42;13.40;93.80
36374;DHT22;22399;51.346;12.372;2023-04-24T06:50:10;13.30;93.80
36374;DHT22;22399;51.346;12.372;2023-04-24T06:52:40;13.30;94.10
36374;DHT22;22399;51.346;12.372;2023-04-24T06:55:09;13.30;94.10
36374;DHT22;22399;51.346;12.372;2023-04-24T06:57:38;13.40;94.20
36374;DHT22;22399;51.346;12.372;2023-04-24T07:00:07;13.50;94.20
36374;DHT22;22399;51.346;12.372;2023-04-24T07:02:36;13.60;94.10
36374;DHT22;22399;51.346;12.372;2023-04-24T07:05:06;13.70;94.00
36374;DHT22;22399;51.346;12.372;2023-04-24T07:07:35;13.70;93.90
36374;DHT22;22399;51.346;12.372;2023-04-24T07:10:07;13.70;93.50
36374;DHT22;22399;51.346;12.372;2023-04-24T07:12:35;13.70;93.40
36374;DHT22;22399;51.346;12.372;2023-04-24T07:15:04;13.70;93.30
36374;DHT22;22399;51.346;12.372;2023-04-24T07:17:33;13.60;93.20
36374;DHT22;22399;51.346;12.372;2023-04-24T07:20:02;13.60;93.30
36374;DHT22;22399;51.346;12.372;2023-04-24T07:22:31;13.60;93.10
36374;DHT22;22399;51.346;12.372;2023-04-24T07:24:59;13.70;93.40
36374;DHT22;22399;51.346;12.372;2023-04-24T07:27:29;13.90;93.40
36374;DHT22;22399;51.346;12.372;2023-04-24T07:29:57;14.20;93.20
36374;DHT22;22399;51.346;12.372;2023-04-24T07:32:26;14.60;92.90
36374;DHT22;22399;51.346;12.372;2023-04-24T07:34:54;14.90;92.40
36374;DHT22;22399;51.346;12.372;2023-04-24T07:37:23;15.30;91.70
36374;DHT22;22399;51.346;12.372;2023-04-24T07:39:51;15.70;91.20
36374;DHT22;22399;51.346;12.372;2023-04-24T07:42:19;16.00;90.40
36374;DHT22;22399;51.346;12.372;2023-04-24T07:44:49;16.00;89.90
36374;DHT22;22399;51.346;12.372;2023-04-24T07:47:17;15.80;88.60
36374;DHT22;22399;51.346;12.372;2023-04-24T07:49:46;15.60;88.20
36374;DHT22;22399;51.346;12.372;2023-04-24T07:52:14;15.40;88.10
36374;DHT22;22399;51.346;12.372;2023-04-24T07:54:42;15.40;89.00
36374;DHT22;22399;51.346;12.372;2023-04-24T07:57:10;15.30;88.40
36374;DHT22;22399;51.346;12.372;2023-04-24T07:59:39;15.40;87.60
36374;DHT22;22399;51.346;12.372;2023-04-24T08:02:09;15.70;87.00
36374;DHT22;22399;51.346;12.372;2023-04-24T08:04:38;16.30;86.40
36374;DHT22;22399;51.346;12.372;2023-04-24T08:07:06;16.70;84.20
36374;DHT22;22399;51.346;12.372;2023-04-24T08:09:34;17.10;82.10
36374;DHT22;22399;51.346;12.372;2023-04-24T08:12:02;17.30;80.40
36374;DHT22;22399;51.346;12.372;2023-04-24T08:14:31;17.30;79.90
36374;DHT22;22399;51.346;12.372;2023-04-24T08:16:59;17.50;79.20
36374;DHT22;22399;51.346;12.372;2023-04-24T08:19:29;17.80;79.00
36374;DHT22;22399;51.346;12.372;2023-04-24T08:21:57;17.70;76.70
36374;DHT22;22399;51.346;12.372;2023-04-24T08:24:26;17.80;76.20
36374;DHT22;22399;51.346;12.372;2023-04-24T08:26:54;18.20;76.40
36374;DHT22;22399;51.346;12.372;2023-04-24T08:29:24;18.60;75.20
36374;DHT22;22399;51.346;12.372;2023-04-24T08:31:53;18.60;74.40
36374;DHT22;22399;51.346;12.372;2023-04-24T08:34:25;18.50;74.50
36374;DHT22;22399;51.346;12.372;2023-04-24T08:36:54;18.40;73.30
36374;DHT22;22399;51.346;12.372;2023-04-24T08:39:23;18.30;73.70
36374;DHT22;22399;51.346;12.372;2023-04-24T08:41:51;18.10;73.30
36374;DHT22;22399;51.346;12.372;2023-04-24T08:44:20;17.70;73.80
36374;DHT22;22399;51.346;12.372;2023-04-24T08:46:49;17.30;73.20
36374;DHT22;22399;51.346;12.372;2023-04-24T08:49:18;16.80;73.70
36374;DHT22;22399;51.346;12.372;2023-04-24T08:51:46;16.70;74.50
36374;DHT22;22399;51.346;12.372;2023-04-24T08:54:17;16.60;74.40
36374;DHT22;22399;51.346;12.372;2023-04-24T08:56:45;16.60;74.30
36374;DHT22;22399;51.346;12.372;2023-04-24T08:59:15;17.30;74.60
36374;DHT22;22399;51.346;12.372;2023-04-24T09:01:43;17.70;73.40
36374;DHT22;22399;51.346;12.372;2023-04-24T09:04:13;17.90;73.00
36374;DHT22;22399;51.346;12.372;2023-04-24T09:06:43;17.80;71.70
36374;DHT22;22399;51.346;12.372;2023-04-24T09:09:11;17.70;72.30
36374;DHT22;22399;51.346;12.372;2023-04-24T09:11:41;17.80;72.40
36374;DHT22;22399;51.346;12.372;2023-04-24T09:14:09;17.70;71.90
36374;DHT22;22399;51.346;12.372;2023-04-24T09:16:38;17.50;71.70
36374;DHT22;22399;51.346;12.372;2023-04-24T09:19:06;17.20;71.90
36374;DHT22;22399;51.346;12.372;2023-04-24T09:21:34;17.00;72.00
36374;DHT22;22399;51.346;12.372;2023-04-24T09:24:03;16.80;72.30
36374;DHT22;22399;51.346;12.372;2023-04-24T09:26:32;16.60;72.90
36374;DHT22;22399;51.346;12.372;2023-04-24T09:29:01;16.50;73.20
36374;DHT22;22399;51.346;12.372;2023-04-24T09:31:30;16.30;73.60
36374;DHT22;22399;51.346;12.372;2023-04-24T09:33:59;16.10;74.00
36374;DHT22;22399;51.346;12.372;2023-04-24T09:36:32;15.90;74.00
36374;DHT22;22399;51.346;12.372;2023-04-24T09:39:01;15.80;74.10
36374;DHT22;22399;51.346;12.372;2023-04-24T09:41:29;15.70;74.10
36374;DHT22;22399;51.346;12.372;2023-04-24T09:43:57;15.60;74.30
36374;DHT22;22399;51.346;12.372;2023-04-24T09:46:30;15.60;74.10
36374;DHT22;22399;51.346;12.372;2023-04-24T09:49:04;15.70;73.80
36374;DHT22;22399;51.346;12.372;2023-04-24T09:51:35;15.70;73.30
36374;DHT22;22399;51.346;12.372;2023-04-24T09:54:04;15.70;72.40
36374;DHT22;22399;51.346;12.372;2023-04-24T09:56:39;15.80;72.30
36374;DHT22;22399;51.346;12.372;2023-04-24T09:59:09;15.80;72.00
36374;DHT22;22399;51.346;12.372;2023-04-24T10:01:39;16.10;70.90
36374;DHT22;22399;51.346;12.372;2023-04-24T10:04:14;16.30;70.60
36374;DHT22;22399;51.346;12.372;2023-04-24T10:06:43;16.70;71.00
36374;DHT22;22399;51.346;12.372;2023-04-24T10:09:11;17.30;71.00
36374;DHT22;22399;51.346;12.372;2023-04-24T10:11:41;17.80;70.20
36374;DHT22;22399;51.346;12.372;2023-04-24T10:14:09;18.10;70.40
36374;DHT22;22399;51.346;12.372;2023-04-24T10:16:40;18.20;68.80
36374;DHT22;22399;51.346;12.372;2023-04-24T10:19:09;18.40;68.80
36374;DHT22;22399;51.346;12.372;2023-04-24T10:21:37;18.30;67.80
36374;DHT22;22399;51.346;12.372;2023-04-24T10:24:09;18.00;67.10
36374;DHT22;22399;51.346;12.372;2023-04-24T10:26:37;17.70;66.10
36374;DHT22;22399;51.346;12.372;2023-04-24T10:29:06;17.50;66.70
36374;DHT22;22399;51.346;12.372;2023-04-24T10:31:36;17.80;66.50
36374;DHT22;22399;51.346;12.372;2023-04-24T10:34:06;18.10;65.80
36374;DHT22;22399;51.346;12.372;2023-04-24T10:36:34;18.50;65.20
36374;DHT22;22399;51.346;12.372;2023-04-24T10:39:03;18.80;64.00
36374;DHT22;22399;51.346;12.372;2023-04-24T10:41:36;19.00;63.80
36374;DHT22;22399;51.346;12.372;2023-04-24T10:44:04;18.90;63.60
36374;DHT22;22399;51.346;12.372;2023-04-24T10:46:33;18.70;64.00
36374;DHT22;22399;51.346;12.372;2023-04-24T10:49:03;18.80;63.90
36374;DHT22;22399;51.346;12.372;2023-04-24T10:51:47;19.10;63.40
36374;DHT22;22399;51.346;12.372;2023-04-24T10:54:22;19.10;63.00
36374;DHT22;22399;51.346;12.372;2023-04-24T10:56:50;19.30;62.70
36374;DHT22;22399;51.346;12.372;2023-04-24T10:59:24;19.60;61.20
36374;DHT22;22399;51.346;12.372;2023-04-24T11:01:53;19.90;61.20
36374;DHT22;22399;51.346;12.372;2023-04-24T11:04:30;20.10;60.60
36374;DHT22;22399;51.346;12.372;2023-04-24T11:07:00;20.40;60.80
36374;DHT22;22399;51.346;12.372;2023-04-24T11:09:30;20.40;59.90
36374;DHT22;22399;51.346;12.372;2023-04-24T11:12:05;20.20;59.00
36374;DHT22;22399;51.346;12.372;2023-04-24T11:17:31;20.90;59.40
36374;DHT22;22399;51.346;12.372;2023-04-24T11:20:00;21.00;58.80
36374;DHT22;22399;51.346;12.372;2023-04-24T11:22:52;21.40;58.80
36374;DHT22;22399;51.346;12.372;2023-04-24T11:25:21;21.30;56.10
36374;DHT22;22399;51.346;12.372;2023-04-24T11:27:50;20.50;55.30
36374;DHT22;22399;51.346;12.372;2023-04-24T11:30:18;20.10;56.30
36374;DHT22;22399;51.346;12.372;2023-04-24T11:32:47;19.80;56.10
36374;DHT22;22399;51.346;12.372;2023-04-24T11:35:16;19.40;55.30
36374;DHT22;22399;51.346;12.372;2023-04-24T11:37:45;19.40;55.60
36374;DHT22;22399;51.346;12.372;2023-04-24T11:40:35;19.50;56.10
36374;DHT22;22399;51.346;12.372;2023-04-24T11:43:05;19.50;55.60
36374;DHT22;22399;51.346;12.372;2023-04-24T11:45:34;19.60;55.50
36374;DHT22;22399;51.346;12.372;2023-04-24T11:48:02;19.40;55.00
36374;DHT22;22399;51.346;12.372;2023-04-24T11:50:30;19.20;55.20
36374;DHT22;22399;51.346;12.372;2023-04-24T11:52:58;18.90;54.80
36374;DHT22;22399;51.346;12.372;2023-04-24T11:55:28;18.70;55.40
36374;DHT22;22399;51.346;12.372;2023-04-24T11:57:58;18.70;54.80
36374;DHT22;22399;51.346;12.372;2023-04-24T12:00:27;18.40;54.70
36374;DHT22;22399;51.346;12.372;2023-04-24T12:03:03;18.40;54.40
36374;DHT22;22399;51.346;12.372;2023-04-24T12:05:32;18.50;53.80
36374;DHT22;22399;51.346;12.372;2023-04-24T12:08:01;18.30;53.10
36374;DHT22;22399;51.346;12.372;2023-04-24T12:10:30;18.40;54.10
36374;DHT22;22399;51.346;12.372;2023-04-24T12:13:00;19.20;54.40
36374;DHT22;22399;51.346;12.372;2023-04-24T12:15:28;19.70;53.90
36374;DHT22;22399;51.346;12.372;2023-04-24T12:17:56;19.60;53.60
36374;DHT22;22399;51.346;12.372;2023-04-24T12:20:24;18.90;53.60
36374;DHT22;22399;51.346;12.372;2023-04-24T12:22:53;19.00;55.40
36374;DHT22;22399;51.346;12.372;2023-04-24T12:25:24;19.30;55.30
36374;DHT22;22399;51.346;12.372;2023-04-24T12:27:53;19.30;54.30
36374;DHT22;22399;51.346;12.372;2023-04-24T12:30:26;19.00;54.00
36374;DHT22;22399;51.346;12.372;2023-04-24T12:32:56;18.90;54.40
36374;DHT22;22399;51.346;12.372;2023-04-24T12:35:25;18.50;53.80
36374;DHT22;22399;51.346;12.372;2023-04-24T12:37:53;18.40;54.10
36374;DHT22;22399;51.346;12.372;2023-04-24T12:40:21;18.20;54.30
36374;DHT22;22399;51.346;12.372;2023-04-24T12:42:52;18.30;54.50
36374;DHT22;22399;51.346;12.372;2023-04-24T12:45:24;18.30;54.30
36374;DHT22;22399;51.346;12.372;2023-04-24T12:47:54;18.40;54.50
36374;DHT22;22399;51.346;12.372;2023-04-24T12:50:22;18.40;54.40
36374;DHT22;22399;51.346;12.372;2023-04-24T12:52:50;18.60;54.30
36374;DHT22;22399;51.346;12.372;2023-04-24T12:55:18;18.70;54.30
36374;DHT22;22399;51.346;12.372;2023-04-24T12:57:46;18.50;53.90
36374;DHT22;22399;51.346;12.372;2023-04-24T13:00:14;18.50;54.20
36374;DHT22;22399;51.346;12.372;2023-04-24T13:02:47;18.80;54.40
36374;DHT22;22399;51.346;12.372;2023-04-24T13:05:15;18.80;53.90
36374;DHT22;22399;51.346;12.372;2023-04-24T13:07:43;18.60;54.00
36374;DHT22;22399;51.346;12.372;2023-04-24T13:10:11;18.60;53.80
36374;DHT22;22399;51.346;12.372;2023-04-24T13:12:40;18.20;53.00
36374;DHT22;22399;51.346;12.372;2023-04-24T13:15:11;18.10;53.00
36374;DHT22;22399;51.346;12.372;2023-04-24T13:17:39;18.30;53.20
36374;DHT22;22399;51.346;12.372;2023-04-24T13:20:09;18.50;53.50
36374;DHT22;22399;51.346;12.372;2023-04-24T13:22:37;19.00;53.00
36374;DHT22;22399;51.346;12.372;2023-04-24T13:25:06;19.40;51.50
36374;DHT22;22399;51.346;12.372;2023-04-24T13:27:37;19.70;51.30
36374;DHT22;22399;51.346;12.372;2023-04-24T13:30:06;20.20;49.50
36374;DHT22;22399;51.346;12.372;2023-04-24T13:32:34;20.50;49.50
36374;DHT22;22399;51.346;12.372;2023-04-24T13:35:03;20.90;48.70
36374;DHT22;22399;51.346;12.372;2023-04-24T13:37:33;20.90;48.80
36374;DHT22;22399;51.346;12.372;2023-04-24T13:40:01;20.90;47.80
36374;DHT22;22399;51.346;12.372;2023-04-24T13:42:29;20.60;48.40
36374;DHT22;22399;51.346;12.372;2023-04-24T13:44:57;20.00;48.90
36374;DHT22;22399;51.346;12.372;2023-04-24T13:47:26;19.40;49.00
36374;DHT22;22399;51.346;12.372;2023-04-24T13:49:54;19.00;50.00
36374;DHT22;22399;51.346;12.372;2023-04-24T13:52:22;18.70;50.60
36374;DHT22;22399;51.346;12.372;2023-04-24T13:54:52;18.60;51.00
36374;DHT22;22399;51.346;12.372;2023-04-24T13:57:20;18.20;51.20
36374;DHT22;22399;51.346;12.372;2023-04-24T13:59:48;17.80;51.70
36374;DHT22;22399;51.346;12.372;2023-04-24T14:02:15;17.50;51.90
36374;DHT22;22399;51.346;12.372;2023-04-24T14:04:44;17.30;52.60
36374;DHT22;22399;51.346;12.372;2023-04-24T14:07:12;17.20;53.10
36374;DHT22;22399;51.346;12.372;2023-04-24T14:09:40;17.50;53.50
36374;DHT22;22399;51.346;12.372;2023-04-24T14:12:10;17.70;53.60
36374;DHT22;22399;51.346;12.372;2023-04-24T14:14:38;17.80;52.80
36374;DHT22;22399;51.346;12.372;2023-04-24T14:17:06;17.70;52.30
36374;DHT22;22399;51.346;12.372;2023-04-24T14:19:34;17.70;52.40
36374;DHT22;22399;51.346;12.372;2023-04-24T14:22:03;17.60;52.30
36374;DHT22;22399;51.346;12.372;2023-04-24T14:24:31;17.60;53.00
36374;DHT22;22399;51.346;12.372;2023-04-24T14:26:59;17.60;53.30
36374;DHT22;22399;51.346;12.372;2023-04-24T14:29:29;17.60;53.10
36374;DHT22;22399;51.346;12.372;2023-04-24T14:32:00;17.70;53.00
36374;DHT22;22399;51.346;12.372;2023-04-24T14:34:29;17.70;53.40
36374;DHT22;22399;51.346;12.372;2023-04-24T14:36:57;17.60;53.30
36374;DHT22;22399;51.346;12.372;2023-04-24T14:39:26;17.40;53.40
36374;DHT22;22399;51.346;12.372;2023-04-24T14:41:55;17.10;53.40
36374;DHT22;22399;51.346;12.372;2023-04-24T14:44:23;17.00;53.80
36374;DHT22;22399;51.346;12.372;2023-04-24T14:46:53;16.90;54.40
36374;DHT22;22399;51.346;12.372;2023-04-24T14:49:22;16.90;54.70
36374;DHT22;22399;51.346;12.372;2023-04-24T14:51:50;16.60;55.20
36374;DHT22;22399;51.346;12.372;2023-04-24T14:54:19;16.40;55.60
36374;DHT22;22399;51.346;12.372;2023-04-24T14:56:49;16.20;56.10
36374;DHT22;22399;51.346;12.372;2023-04-24T14:59:18;16.10;56.60
36374;DHT22;22399;51.346;12.372;2023-04-24T15:01:46;16.10;56.80
36374;DHT22;22399;51.346;12.372;2023-04-24T15:04:16;15.90;57.10
36374;DHT22;22399;51.346;12.372;2023-04-24T15:06:44;15.60;57.70
36374;DHT22;22399;51.346;12.372;2023-04-24T15:09:13;15.30;58.20
36374;DHT22;22399;51.346;12.372;2023-04-24T15:11:41;15.20;58.70
36374;DHT22;22399;51.346;12.372;2023-04-24T15:14:09;15.20;59.10
36374;DHT22;22399;51.346;12.372;2023-04-24T15:16:38;15.40;59.20
36374;DHT22;22399;51.346;12.372;2023-04-24T15:19:06;15.50;59.10
36374;DHT22;22399;51.346;12.372;2023-04-24T15:21:36;15.50;59.00
36374;DHT22;22399;51.346;12.372;2023-04-24T15:24:04;15.40;59.20
36374;DHT22;22399;51.346;12.372;2023-04-24T15:26:33;15.20;59.40
36374;DHT22;22399;51.346;12.372;2023-04-24T15:29:01;15.10;59.80
36374;DHT22;22399;51.346;12.372;2023-04-24T15:31:29;15.10;60.00
36374;DHT22;22399;51.346;12.372;2023-04-24T15:33:58;15.10;60.40
36374;DHT22;22399;51.346;12.372;2023-04-24T15:36:26;15.20;60.50